createdAt,value
2023-05-22T00:00:25.196Z,14.38
2023-05-22T00:02:52.687Z,18.25
2023-05-22T00:05:20.610Z,19.23
2023-05-22T00:07:47.253Z,20.52
2023-05-22T00:10:13.825Z,20.25
2023-05-22T00:12:40.566Z,19.75
2023-05-22T00:15:07.745Z,19.13
2023-05-22T00:17:34.544Z,22.35
2023-05-22T00:20:08.992Z,19.40
2023-05-22T00:22:35.687Z,20.05
2023-05-22T00:25:05.795Z,18.10
2023-05-22T00:27:32.852Z,17.63
2023-05-22T00:29:59.650Z,19.70
2023-05-22T00:32:26.418Z,18.20
2023-05-22T00:34:53.066Z,16.40
2023-05-22T00:37:22.274Z,14.20
2023-05-22T00:39:49.062Z,13.68
2023-05-22T00:42:15.937Z,14.88
2023-05-22T00:44:42.657Z,17.83
2023-05-22T00:47:09.218Z,14.25
2023-05-22T00:49:35.785Z,9.98
2023-05-22T00:52:02.472Z,14.45
2023-05-22T00:54:32.009Z,11.15
2023-05-22T00:57:00.653Z,10.70
2023-05-22T00:59:27.850Z,9.75
2023-05-22T01:01:55.060Z,9.40
2023-05-22T01:04:21.821Z,10.73
2023-05-22T01:06:48.423Z,9.23
2023-05-22T01:09:15.199Z,11.57
2023-05-22T01:11:44.728Z,10.65
2023-05-22T01:14:14.124Z,10.25
2023-05-22T01:16:46.958Z,10.45
2023-05-22T01:19:36.674Z,8.75
2023-05-22T01:22:05.932Z,9.60
2023-05-22T01:24:52.203Z,7.47
2023-05-22T01:27:18.699Z,9.30
2023-05-22T01:29:55.656Z,8.95
2023-05-22T01:32:23.395Z,7.45
2023-05-22T01:34:53.242Z,8.75
2023-05-22T01:37:21.902Z,9.25
2023-05-22T01:39:49.014Z,9.02
2023-05-22T01:42:15.988Z,9.63
2023-05-22T01:44:42.548Z,8.18
2023-05-22T01:47:09.166Z,9.10
2023-05-22T01:49:36.505Z,10.35
2023-05-22T01:52:26.782Z,10.75
2023-05-22T01:54:59.130Z,7.93
2023-05-22T01:57:31.052Z,7.72
2023-05-22T02:00:09.965Z,8.27
2023-05-22T02:02:37.944Z,7.38
2023-05-22T02:05:05.740Z,7.38
2023-05-22T02:07:33.404Z,7.95
2023-05-22T02:10:01.318Z,9.50
2023-05-22T02:12:28.174Z,7.43
2023-05-22T02:14:55.634Z,6.45
2023-05-22T02:17:22.231Z,7.25
2023-05-22T02:19:48.964Z,9.65
2023-05-22T02:22:15.604Z,8.15
2023-05-22T02:24:43.412Z,7.38
2023-05-22T02:27:09.973Z,6.85
2023-05-22T02:29:36.524Z,8.35
2023-05-22T02:32:03.094Z,6.97
2023-05-22T02:34:31.766Z,7.53
2023-05-22T02:37:03.882Z,7.28
2023-05-22T02:39:30.647Z,9.63
2023-05-22T02:41:57.196Z,10.38
2023-05-22T02:44:23.772Z,8.20
2023-05-22T02:46:50.354Z,9.32
2023-05-22T02:49:17.019Z,7.93
2023-05-22T02:51:47.778Z,10.10
2023-05-22T02:54:15.713Z,9.13
2023-05-22T02:56:42.869Z,9.27
2023-05-22T02:59:09.497Z,7.93
2023-05-22T03:01:36.692Z,13.38
2023-05-22T03:04:03.347Z,9.02
2023-05-22T03:06:30.633Z,9.10
2023-05-22T03:08:57.186Z,7.03
2023-05-22T03:11:23.708Z,7.93
2023-05-22T03:13:50.224Z,7.50
2023-05-22T03:16:16.905Z,9.25
2023-05-22T03:18:43.593Z,8.35
2023-05-22T03:21:10.160Z,8.85
2023-05-22T03:23:36.710Z,8.38
2023-05-22T03:26:03.248Z,8.52
2023-05-22T03:28:29.826Z,7.90
2023-05-22T03:30:56.379Z,6.85
2023-05-22T03:33:23.004Z,8.15
2023-05-22T03:35:50.195Z,9.23
2023-05-22T03:38:16.751Z,6.80
2023-05-22T03:40:43.269Z,9.95
2023-05-22T03:43:09.778Z,6.32
2023-05-22T03:45:36.403Z,7.32
2023-05-22T03:48:02.997Z,9.48
2023-05-22T03:50:29.597Z,5.30
2023-05-22T03:52:56.124Z,7.00
2023-05-22T03:55:22.669Z,6.70
2023-05-22T03:57:49.174Z,7.05
2023-05-22T04:00:17.155Z,8.00
2023-05-22T04:02:45.425Z,7.50
2023-05-22T04:05:12.211Z,7.22
2023-05-22T04:07:38.757Z,7.13
2023-05-22T04:10:05.521Z,7.38
2023-05-22T04:12:32.119Z,6.97
2023-05-22T04:14:58.653Z,7.85
2023-05-22T04:17:26.528Z,7.70
2023-05-22T04:19:53.139Z,7.22
2023-05-22T04:22:19.661Z,7.55
2023-05-22T04:24:49.318Z,6.72
2023-05-22T04:27:16.088Z,6.32
2023-05-22T04:29:42.654Z,7.95
2023-05-22T04:32:10.752Z,8.80
2023-05-22T04:34:41.785Z,8.75
2023-05-22T04:37:10.255Z,5.82
2023-05-22T04:39:37.782Z,7.55
2023-05-22T04:42:06.038Z,8.20
2023-05-22T04:44:34.472Z,5.78
2023-05-22T04:47:01.688Z,8.52
2023-05-22T04:49:28.776Z,6.40
2023-05-22T04:51:55.711Z,7.47
2023-05-22T04:54:22.224Z,6.93
2023-05-22T04:56:48.812Z,6.03
2023-05-22T04:59:16.465Z,5.72
2023-05-22T05:01:46.402Z,6.50
2023-05-22T05:04:13.060Z,7.63
2023-05-22T05:06:39.640Z,7.75
2023-05-22T05:09:06.371Z,7.85
2023-05-22T05:11:32.949Z,8.75
2023-05-22T05:13:59.470Z,8.32
2023-05-22T05:16:26.523Z,11.00
2023-05-22T05:18:53.605Z,7.82
2023-05-22T05:21:21.524Z,11.15
2023-05-22T05:23:48.436Z,10.20
2023-05-22T05:26:14.963Z,12.52
2023-05-22T05:28:41.534Z,12.07
2023-05-22T05:31:08.061Z,11.90
2023-05-22T05:33:34.596Z,10.32
2023-05-22T05:36:01.154Z,9.85
2023-05-22T05:38:27.667Z,6.20
2023-05-22T05:40:54.215Z,8.30
2023-05-22T05:43:20.811Z,5.82
2023-05-22T05:45:47.368Z,5.47
2023-05-22T05:48:13.976Z,8.45
2023-05-22T05:50:40.785Z,8.82
2023-05-22T05:53:08.109Z,7.05
2023-05-22T05:55:34.840Z,5.70
2023-05-22T05:58:01.374Z,11.02
2023-05-22T06:00:28.028Z,5.15
2023-05-22T06:02:55.169Z,5.35
2023-05-22T06:05:22.361Z,10.52
2023-05-22T06:07:49.783Z,10.32
2023-05-22T06:10:16.397Z,6.43
2023-05-22T06:12:43.142Z,5.80
2023-05-22T06:15:09.797Z,7.13
2023-05-22T06:17:37.690Z,6.25
2023-05-22T06:20:07.036Z,6.22
2023-05-22T06:22:33.598Z,10.43
2023-05-22T06:25:00.212Z,9.60
2023-05-22T06:27:27.862Z,5.15
2023-05-22T06:29:55.626Z,6.55
2023-05-22T06:32:22.996Z,5.68
2023-05-22T06:34:49.945Z,8.30
2023-05-22T06:37:16.951Z,11.68
2023-05-22T06:39:43.549Z,5.32
2023-05-22T06:42:10.114Z,13.98
2023-05-22T06:44:36.655Z,6.70
2023-05-22T06:47:03.264Z,9.23
2023-05-22T06:49:29.777Z,9.13
2023-05-22T06:51:57.213Z,8.73
2023-05-22T06:54:23.840Z,9.05
2023-05-22T06:56:50.595Z,7.03
2023-05-22T06:59:17.204Z,9.20
2023-05-22T07:01:43.928Z,11.85
2023-05-22T07:04:12.076Z,6.53
2023-05-22T07:06:39.276Z,7.60
2023-05-22T07:09:06.289Z,4.25
2023-05-22T07:11:32.868Z,7.32
2023-05-22T07:13:59.471Z,7.90
2023-05-22T07:16:26.169Z,6.38
2023-05-22T07:18:53.197Z,7.20
2023-05-22T07:21:19.847Z,11.32
2023-05-22T07:23:46.467Z,3.92
2023-05-22T07:26:13.040Z,7.00
2023-05-22T07:28:39.578Z,7.65
2023-05-22T07:31:06.583Z,7.95
2023-05-22T07:33:33.235Z,7.28
2023-05-22T07:35:59.778Z,7.45
2023-05-22T07:38:26.766Z,6.88
2023-05-22T07:40:53.361Z,5.45
2023-05-22T07:43:19.898Z,8.02
2023-05-22T07:45:46.496Z,9.55
2023-05-22T07:48:13.135Z,7.55
2023-05-22T07:50:39.804Z,5.28
2023-05-22T07:53:06.584Z,9.15
2023-05-22T07:55:33.152Z,4.82
2023-05-22T07:57:59.684Z,5.43
2023-05-22T08:00:26.393Z,6.13
2023-05-22T08:02:53.237Z,4.30
2023-05-22T08:05:19.998Z,10.07
2023-05-22T08:07:46.578Z,5.30
2023-05-22T08:10:14.305Z,7.57
2023-05-22T08:12:41.003Z,4.72
2023-05-22T08:15:07.831Z,6.25
2023-05-22T08:17:35.189Z,8.43
2023-05-22T08:20:02.065Z,3.95
2023-05-22T08:22:31.521Z,6.72
2023-05-22T08:24:58.058Z,6.57
2023-05-22T08:27:24.614Z,7.30
2023-05-22T08:29:52.178Z,5.55
2023-05-22T08:32:19.010Z,5.25
2023-05-22T08:34:46.253Z,7.53
2023-05-22T08:37:14.468Z,8.30
2023-05-22T08:39:41.071Z,6.35
2023-05-22T08:42:08.257Z,5.60
2023-05-22T08:44:35.128Z,9.43
2023-05-22T08:47:02.020Z,9.18
2023-05-22T08:49:28.824Z,7.90
2023-05-22T08:52:03.186Z,11.45
2023-05-22T08:54:30.802Z,6.93
2023-05-22T08:56:57.831Z,6.97
2023-05-22T08:59:24.552Z,5.45
2023-05-22T09:01:52.507Z,7.38
2023-05-22T09:04:23.169Z,5.43
2023-05-22T09:06:50.665Z,13.35
2023-05-22T09:09:18.042Z,7.05
2023-05-22T09:11:44.640Z,5.78
2023-05-22T09:14:11.702Z,4.75
2023-05-22T09:16:46.173Z,7.40
2023-05-22T09:19:13.990Z,7.90
2023-05-22T09:21:40.916Z,8.02
2023-05-22T09:24:11.040Z,6.50
2023-05-22T09:26:40.829Z,6.90
2023-05-22T09:29:10.088Z,5.45
2023-05-22T09:31:43.126Z,3.63
2023-05-22T09:34:10.621Z,6.22
2023-05-22T09:36:37.171Z,6.38
2023-05-22T09:39:04.767Z,8.48
2023-05-22T09:41:35.720Z,6.53
2023-05-22T09:44:02.443Z,6.55
2023-05-22T09:46:29.690Z,6.93
2023-05-22T09:48:56.540Z,6.55
2023-05-22T09:51:26.811Z,7.68
2023-05-22T09:53:57.064Z,9.68
2023-05-22T09:56:37.874Z,7.85
2023-05-22T09:59:08.815Z,8.80
2023-05-22T10:01:36.319Z,7.68
2023-05-22T10:04:04.434Z,5.60
2023-05-22T10:06:31.818Z,7.95
2023-05-22T10:09:01.878Z,5.45
2023-05-22T10:11:29.703Z,6.32
2023-05-22T10:13:58.686Z,3.67
2023-05-22T10:16:26.091Z,4.00
2023-05-22T10:18:53.755Z,3.83
2023-05-22T10:21:21.264Z,6.13
2023-05-22T10:23:48.759Z,6.88
2023-05-22T10:26:16.570Z,5.93
2023-05-22T10:28:51.670Z,4.78
2023-05-22T10:31:32.132Z,5.38
2023-05-22T10:34:05.530Z,2.50
2023-05-22T10:36:32.290Z,5.95
2023-05-22T10:39:14.038Z,6.03
2023-05-22T10:41:40.799Z,4.55
2023-05-22T10:44:07.429Z,4.85
2023-05-22T10:46:36.728Z,5.82
2023-05-22T10:49:03.393Z,4.70
2023-05-22T10:51:32.555Z,8.90
2023-05-22T10:54:00.979Z,6.95
2023-05-22T10:56:32.866Z,5.13
2023-05-22T10:59:05.357Z,5.43
2023-05-22T11:01:38.188Z,5.78
2023-05-22T11:04:05.312Z,4.30
2023-05-22T11:06:39.227Z,7.18
2023-05-22T11:09:18.926Z,4.68
2023-05-22T11:11:46.248Z,5.22
2023-05-22T11:14:16.236Z,6.68
2023-05-22T11:16:43.202Z,4.05
2023-05-22T11:19:22.803Z,2.67
2023-05-22T11:21:50.247Z,7.40
2023-05-22T11:24:18.281Z,6.22
2023-05-22T11:27:00.491Z,4.75
2023-05-22T11:29:27.532Z,4.15
2023-05-22T11:31:54.514Z,7.05
2023-05-22T11:34:21.151Z,6.03
2023-05-22T11:36:48.314Z,8.75
2023-05-22T11:39:15.048Z,4.13
2023-05-22T11:41:41.571Z,5.85
2023-05-22T11:44:08.738Z,6.38
2023-05-22T11:46:35.520Z,3.28
2023-05-22T11:49:02.557Z,3.92
2023-05-22T11:51:29.385Z,4.15
2023-05-22T11:53:57.017Z,6.97
2023-05-22T11:56:23.571Z,5.38
2023-05-22T11:58:50.456Z,6.47
2023-05-22T12:01:17.028Z,5.95
2023-05-22T12:03:43.644Z,5.32
2023-05-22T12:06:10.804Z,3.88
2023-05-22T12:08:37.437Z,7.80
2023-05-22T12:11:04.804Z,6.68
2023-05-22T12:13:32.004Z,5.15
2023-05-22T12:16:02.335Z,7.85
2023-05-22T12:18:37.821Z,8.60
2023-05-22T12:21:07.701Z,4.35
2023-05-22T12:23:34.369Z,5.35
2023-05-22T12:26:02.319Z,11.25
2023-05-22T12:28:31.327Z,5.93
2023-05-22T12:30:57.911Z,4.47
2023-05-22T12:33:31.271Z,4.47
2023-05-22T12:35:58.807Z,5.45
2023-05-22T12:38:26.648Z,6.72
2023-05-22T12:40:53.623Z,5.18
2023-05-22T12:43:21.305Z,7.78
2023-05-22T12:45:48.080Z,7.13
2023-05-22T12:48:14.868Z,5.20
2023-05-22T12:50:41.766Z,3.90
2023-05-22T12:53:08.644Z,7.90
2023-05-22T12:55:35.544Z,6.93
2023-05-22T12:58:02.121Z,4.28
2023-05-22T13:00:28.804Z,4.80
2023-05-22T13:02:55.490Z,7.07
2023-05-22T13:05:22.183Z,6.22
2023-05-22T13:07:49.102Z,9.52
2023-05-22T13:10:16.036Z,3.95
2023-05-22T13:12:43.240Z,5.20
2023-05-22T13:15:13.762Z,5.72
2023-05-22T13:17:40.326Z,6.68
2023-05-22T13:20:07.248Z,10.13
2023-05-22T13:22:33.887Z,5.00
2023-05-22T13:25:00.671Z,3.70
2023-05-22T13:27:28.071Z,4.28
2023-05-22T13:29:54.601Z,7.13
2023-05-22T13:32:21.178Z,5.43
2023-05-22T13:34:47.792Z,5.75
2023-05-22T13:37:14.627Z,7.05
2023-05-22T13:39:41.183Z,4.00
2023-05-22T13:42:08.983Z,4.93
2023-05-22T13:44:35.512Z,6.75
2023-05-22T13:47:02.080Z,6.70
2023-05-22T13:49:29.097Z,3.92
2023-05-22T13:51:55.633Z,5.20
2023-05-22T13:54:22.311Z,6.13
2023-05-22T13:56:48.908Z,4.05
2023-05-22T13:59:15.440Z,4.55
2023-05-22T14:01:42.012Z,4.60
2023-05-22T14:04:08.664Z,7.95
2023-05-22T14:06:35.291Z,3.83
2023-05-22T14:09:01.844Z,5.20
2023-05-22T14:11:28.463Z,4.25
2023-05-22T14:13:55.019Z,3.20
2023-05-22T14:16:22.551Z,3.85
2023-05-22T14:18:49.204Z,5.32
2023-05-22T14:21:16.082Z,4.88
2023-05-22T14:23:42.615Z,5.40
2023-05-22T14:26:09.174Z,5.18
2023-05-22T14:28:36.390Z,5.28
2023-05-22T14:31:03.007Z,5.18
2023-05-22T14:33:30.621Z,4.95
2023-05-22T14:35:57.153Z,5.43
2023-05-22T14:38:23.706Z,6.10
2023-05-22T14:40:51.378Z,4.57
2023-05-22T14:43:17.945Z,4.55
2023-05-22T14:45:44.472Z,6.20
2023-05-22T14:48:11.612Z,5.65
2023-05-22T14:50:38.186Z,5.00
2023-05-22T14:53:04.726Z,4.00
2023-05-22T14:55:31.851Z,3.97
2023-05-22T14:57:58.607Z,5.18
2023-05-22T15:00:25.227Z,6.28
2023-05-22T15:02:51.859Z,8.40
2023-05-22T15:05:18.576Z,6.25
2023-05-22T15:07:47.273Z,4.82
2023-05-22T15:10:14.973Z,5.10
2023-05-22T15:12:41.530Z,6.40
2023-05-22T15:15:08.409Z,5.80
2023-05-22T15:17:34.973Z,11.38
2023-05-22T15:20:01.660Z,8.88
2023-05-22T15:22:28.201Z,5.53
2023-05-22T15:25:07.762Z,7.43
2023-05-22T15:27:35.367Z,7.38
2023-05-22T15:30:02.402Z,6.53
2023-05-22T15:32:30.872Z,6.38
2023-05-22T15:34:57.469Z,4.70
2023-05-22T15:37:24.038Z,6.32
2023-05-22T15:39:50.789Z,6.32
2023-05-22T15:42:17.539Z,5.78
2023-05-22T15:44:44.164Z,3.47
2023-05-22T15:47:10.685Z,6.40
2023-05-22T15:49:37.250Z,4.53
2023-05-22T15:52:03.833Z,5.95
2023-05-22T15:54:30.381Z,9.07
2023-05-22T15:56:57.480Z,5.05
2023-05-22T15:59:24.098Z,8.13
2023-05-22T16:01:50.729Z,9.32
2023-05-22T16:04:17.282Z,5.43
2023-05-22T16:06:43.806Z,4.30
2023-05-22T16:09:10.384Z,5.72
2023-05-22T16:11:37.956Z,9.15
2023-05-22T16:14:04.984Z,6.10
2023-05-22T16:16:31.646Z,3.90
2023-05-22T16:18:58.394Z,6.25
2023-05-22T16:21:25.030Z,4.07
2023-05-22T16:23:51.618Z,4.72
2023-05-22T16:26:18.260Z,7.95
2023-05-22T16:28:44.845Z,5.00
2023-05-22T16:31:13.004Z,4.20
2023-05-22T16:33:39.568Z,8.50
2023-05-22T16:36:06.257Z,6.88
2023-05-22T16:38:32.824Z,7.82
2023-05-22T16:40:59.329Z,5.60
2023-05-22T16:43:25.851Z,7.57
2023-05-22T16:45:52.442Z,4.93
2023-05-22T16:48:19.074Z,5.35
2023-05-22T16:50:46.900Z,5.90
2023-05-22T16:53:14.123Z,6.88
2023-05-22T16:55:40.836Z,5.07
2023-05-22T16:58:09.121Z,4.82
2023-05-22T17:00:36.338Z,3.75
2023-05-22T17:03:03.362Z,10.10
2023-05-22T17:05:30.180Z,6.95
2023-05-22T17:07:56.682Z,6.18
2023-05-22T17:10:23.195Z,5.25
2023-05-22T17:12:49.923Z,5.68
2023-05-22T17:15:16.478Z,9.48
2023-05-22T17:17:43.019Z,5.63
2023-05-22T17:20:10.404Z,3.38
2023-05-22T17:22:38.146Z,5.70
2023-05-22T17:25:06.164Z,6.75
2023-05-22T17:27:36.012Z,3.22
2023-05-22T17:30:03.128Z,7.75
2023-05-22T17:32:29.861Z,3.92
2023-05-22T17:34:56.683Z,4.90
2023-05-22T17:37:23.203Z,4.00
2023-05-22T17:39:49.785Z,6.32
2023-05-22T17:42:16.328Z,6.43
2023-05-22T17:44:42.921Z,4.47
2023-05-22T17:47:09.494Z,7.35
2023-05-22T17:49:36.960Z,5.22
2023-05-22T17:52:03.485Z,9.32
2023-05-22T17:54:35.954Z,4.97
2023-05-22T17:57:04.212Z,8.25
2023-05-22T17:59:31.257Z,6.60
2023-05-22T18:01:57.870Z,5.07
2023-05-22T18:04:24.408Z,9.23
2023-05-22T18:06:50.987Z,4.78
2023-05-22T18:09:17.504Z,5.80
2023-05-22T18:11:44.044Z,7.22
2023-05-22T18:14:10.719Z,5.40
2023-05-22T18:16:37.281Z,8.35
2023-05-22T18:19:03.977Z,10.63
2023-05-22T18:21:30.833Z,9.15
2023-05-22T18:23:57.376Z,8.75
2023-05-22T18:26:23.950Z,11.07
2023-05-22T18:28:50.524Z,9.27
2023-05-22T18:31:17.079Z,10.05
2023-05-22T18:33:45.222Z,8.55
2023-05-22T18:36:12.217Z,6.40
2023-05-22T18:38:38.853Z,6.18
2023-05-22T18:41:06.517Z,4.57
2023-05-22T18:43:33.208Z,9.00
2023-05-22T18:45:59.829Z,6.65
2023-05-22T18:48:27.469Z,8.77
2023-05-22T18:50:55.658Z,5.57
2023-05-22T18:53:22.184Z,9.57
2023-05-22T18:55:48.852Z,7.80
2023-05-22T18:58:15.489Z,7.93
2023-05-22T19:00:42.343Z,9.15
2023-05-22T19:03:11.387Z,9.13
2023-05-22T19:05:38.362Z,9.05
2023-05-22T19:08:05.252Z,5.85
2023-05-22T19:10:31.853Z,11.38
2023-05-22T19:12:58.443Z,12.10
2023-05-22T19:15:25.964Z,11.57
2023-05-22T19:17:52.734Z,9.10
2023-05-22T19:20:19.375Z,8.63
2023-05-22T19:22:45.953Z,13.93
2023-05-22T19:25:12.582Z,9.52
2023-05-22T19:27:39.428Z,12.68
2023-05-22T19:30:07.642Z,8.00
2023-05-22T19:32:34.303Z,12.85
2023-05-22T19:35:01.579Z,10.60
2023-05-22T19:37:28.134Z,12.55
2023-05-22T19:39:54.688Z,10.02
2023-05-22T19:42:21.204Z,11.88
2023-05-22T19:44:47.789Z,6.55
2023-05-22T19:47:14.337Z,17.90
2023-05-22T19:49:40.949Z,6.93
2023-05-22T19:52:07.551Z,9.13
2023-05-22T19:54:34.744Z,15.68
2023-05-22T19:57:01.318Z,11.13
2023-05-22T19:59:27.862Z,9.63
2023-05-22T20:01:54.494Z,14.05
2023-05-22T20:04:21.587Z,7.72
2023-05-22T20:06:48.561Z,13.85
2023-05-22T20:09:15.554Z,11.73
2023-05-22T20:11:43.210Z,9.02
2023-05-22T20:14:09.931Z,7.03
2023-05-22T20:16:36.630Z,13.30
2023-05-22T20:19:04.129Z,11.25
2023-05-22T20:21:31.168Z,11.65
2023-05-22T20:23:57.808Z,12.95
2023-05-22T20:26:24.407Z,9.02
2023-05-22T20:28:51.035Z,11.77
2023-05-22T20:31:17.710Z,7.97
2023-05-22T20:33:44.309Z,10.18
2023-05-22T20:36:10.913Z,12.43
2023-05-22T20:38:37.436Z,14.23
2023-05-22T20:41:08.167Z,11.13
2023-05-22T20:43:36.163Z,11.07
2023-05-22T20:46:03.542Z,13.23
2023-05-22T20:48:30.248Z,15.32
2023-05-22T20:50:56.862Z,10.05
2023-05-22T20:53:24.600Z,8.27
2023-05-22T20:55:53.313Z,9.32
2023-05-22T20:58:20.074Z,10.10
2023-05-22T21:00:49.471Z,8.82
2023-05-22T21:03:16.601Z,12.88
2023-05-22T21:05:43.185Z,13.75
2023-05-22T21:08:09.821Z,10.18
2023-05-22T21:10:36.371Z,12.40
2023-05-22T21:13:02.914Z,12.40
2023-05-22T21:15:29.472Z,11.35
2023-05-22T21:17:56.059Z,7.85
2023-05-22T21:20:22.707Z,11.77
2023-05-22T21:22:49.292Z,14.07
2023-05-22T21:25:15.913Z,11.52
2023-05-22T21:27:42.496Z,9.15
2023-05-22T21:30:12.189Z,11.45
2023-05-22T21:32:38.805Z,10.68
2023-05-22T21:35:05.665Z,11.75
2023-05-22T21:37:32.253Z,12.60
2023-05-22T21:39:58.860Z,11.32
2023-05-22T21:42:26.173Z,12.23
2023-05-22T21:44:52.884Z,14.70
2023-05-22T21:47:19.450Z,9.98
2023-05-22T21:49:46.010Z,9.45
2023-05-22T21:52:12.776Z,14.50
2023-05-22T21:54:39.771Z,11.38
2023-05-22T21:57:06.549Z,10.55
2023-05-22T21:59:33.069Z,12.50
2023-05-22T22:01:59.659Z,10.88
2023-05-22T22:04:26.214Z,10.38
2023-05-22T22:06:52.742Z,12.63
2023-05-22T22:09:19.288Z,7.78
2023-05-22T22:11:45.885Z,6.22
2023-05-22T22:14:12.451Z,6.90
2023-05-22T22:16:40.732Z,9.70
2023-05-22T22:19:07.398Z,7.82
2023-05-22T22:21:34.280Z,11.63
2023-05-22T22:24:00.890Z,9.00
2023-05-22T22:26:30.733Z,10.75
2023-05-22T22:28:57.710Z,9.20
2023-05-22T22:31:26.414Z,11.18
2023-05-22T22:33:53.005Z,15.05
2023-05-22T22:36:19.578Z,14.20
2023-05-22T22:38:46.124Z,15.82
2023-05-22T22:41:12.690Z,12.73
2023-05-22T22:43:39.242Z,10.65
2023-05-22T22:46:05.967Z,10.10
2023-05-22T22:48:32.663Z,10.48
2023-05-22T22:50:59.246Z,12.45
2023-05-22T22:53:25.787Z,10.52
2023-05-22T22:55:56.826Z,8.85
2023-05-22T22:58:23.664Z,9.48
2023-05-22T23:00:50.258Z,8.55
2023-05-22T23:03:16.849Z,8.65
2023-05-22T23:05:43.743Z,7.15
2023-05-22T23:08:10.655Z,14.02
2023-05-22T23:10:37.313Z,12.25
2023-05-22T23:13:03.913Z,8.02
2023-05-22T23:15:30.559Z,12.55
2023-05-22T23:17:57.146Z,6.90
2023-05-22T23:20:23.711Z,12.40
2023-05-22T23:22:50.348Z,11.68
2023-05-22T23:25:16.940Z,8.75
2023-05-22T23:27:43.696Z,15.88
2023-05-22T23:30:10.478Z,10.18
2023-05-22T23:32:37.054Z,8.88
2023-05-22T23:35:04.406Z,11.40
2023-05-22T23:37:31.131Z,11.18
2023-05-22T23:39:57.689Z,10.57
2023-05-22T23:42:24.305Z,9.65
2023-05-22T23:44:50.862Z,11.68
2023-05-22T23:47:18.766Z,8.60
2023-05-22T23:49:45.687Z,8.75
2023-05-22T23:52:12.414Z,8.80
2023-05-22T23:54:39.209Z,12.52
2023-05-22T23:57:05.791Z,12.90
2023-05-22T23:59:32.389Z,11.43
